sensor_id;sensor_type;location;lat;lon;timestamp;P1;durP1;ratioP1;P2;durP2;ratioP2
3597;SDS011;1813;52.016;8.714;2023-04-16T00:00:07;118.23;;;57.43;;
3597;SDS011;1813;52.016;8.714;2023-04-16T00:02:42;104.50;;;56.50;;
3597;SDS011;1813;52.016;8.714;2023-04-16T00:05:15;111.80;;;58.47;;
3597;SDS011;1813;52.016;8.714;2023-04-16T00:07:49;113.87;;;58.50;;
3597;SDS011;1813;52.016;8.714;2023-04-16T00:10:23;115.27;;;59.17;;
3597;SDS011;1813;52.016;8.714;2023-04-16T00:13:00;106.53;;;56.13;;
3597;SDS011;1813;52.016;8.714;2023-04-16T00:15:34;106.63;;;58.10;;
3597;SDS011;1813;52.016;8.714;2023-04-16T00:18:07;111.90;;;57.03;;
3597;SDS011;1813;52.016;8.714;2023-04-16T00:20:41;112.90;;;58.20;;
3597;SDS011;1813;52.016;8.714;2023-04-16T00:23:15;113.17;;;57.60;;
3597;SDS011;1813;52.016;8.714;2023-04-16T00:25:49;100.93;;;55.57;;
3597;SDS011;1813;52.016;8.714;2023-04-16T00:28:26;101.43;;;54.83;;
3597;SDS011;1813;52.016;8.714;2023-04-16T00:31:00;98.00;;;54.60;;
3597;SDS011;1813;52.016;8.714;2023-04-16T00:33:33;107.33;;;56.63;;
3597;SDS011;1813;52.016;8.714;2023-04-16T00:36:08;105.13;;;55.70;;
3597;SDS011;1813;52.016;8.714;2023-04-16T00:38:42;103.63;;;54.20;;
3597;SDS011;1813;52.016;8.714;2023-04-16T00:41:16;105.97;;;56.17;;
3597;SDS011;1813;52.016;8.714;2023-04-16T00:43:52;104.40;;;55.37;;
3597;SDS011;1813;52.016;8.714;2023-04-16T00:46:26;105.00;;;54.07;;
3597;SDS011;1813;52.016;8.714;2023-04-16T00:49:00;104.70;;;56.17;;
3597;SDS011;1813;52.016;8.714;2023-04-16T00:51:35;103.03;;;54.93;;
3597;SDS011;1813;52.016;8.714;2023-04-16T00:54:10;114.20;;;56.30;;
3597;SDS011;1813;52.016;8.714;2023-04-16T00:56:44;109.43;;;57.07;;
3597;SDS011;1813;52.016;8.714;2023-04-16T00:59:21;108.67;;;56.00;;
3597;SDS011;1813;52.016;8.714;2023-04-16T01:01:55;113.20;;;57.20;;
3597;SDS011;1813;52.016;8.714;2023-04-16T01:04:30;99.90;;;54.53;;
3597;SDS011;1813;52.016;8.714;2023-04-16T01:07:04;115.40;;;58.50;;
3597;SDS011;1813;52.016;8.714;2023-04-16T01:09:37;101.67;;;54.90;;
3597;SDS011;1813;52.016;8.714;2023-04-16T01:12:11;105.60;;;57.83;;
3597;SDS011;1813;52.016;8.714;2023-04-16T01:14:48;103.77;;;55.83;;
3597;SDS011;1813;52.016;8.714;2023-04-16T01:17:22;105.50;;;57.43;;
3597;SDS011;1813;52.016;8.714;2023-04-16T01:19:57;112.87;;;59.93;;
3597;SDS011;1813;52.016;8.714;2023-04-16T01:22:33;109.80;;;58.33;;
3597;SDS011;1813;52.016;8.714;2023-04-16T01:25:07;108.77;;;57.57;;
3597;SDS011;1813;52.016;8.714;2023-04-16T01:27:48;107.67;;;57.57;;
3597;SDS011;1813;52.016;8.714;2023-04-16T01:30:24;111.97;;;60.27;;
3597;SDS011;1813;52.016;8.714;2023-04-16T01:33:10;116.13;;;58.90;;
3597;SDS011;1813;52.016;8.714;2023-04-16T01:35:44;116.00;;;58.60;;
3597;SDS011;1813;52.016;8.714;2023-04-16T01:38:22;106.53;;;57.93;;
3597;SDS011;1813;52.016;8.714;2023-04-16T01:40:56;106.87;;;56.90;;
3597;SDS011;1813;52.016;8.714;2023-04-16T01:43:31;107.40;;;57.30;;
3597;SDS011;1813;52.016;8.714;2023-04-16T01:46:11;108.60;;;59.60;;
3597;SDS011;1813;52.016;8.714;2023-04-16T01:48:47;108.50;;;59.23;;
3597;SDS011;1813;52.016;8.714;2023-04-16T01:51:24;110.93;;;58.90;;
3597;SDS011;1813;52.016;8.714;2023-04-16T01:54:00;104.43;;;57.40;;
3597;SDS011;1813;52.016;8.714;2023-04-16T01:56:34;106.93;;;57.57;;
3597;SDS011;1813;52.016;8.714;2023-04-16T01:59:08;106.67;;;57.40;;
3597;SDS011;1813;52.016;8.714;2023-04-16T02:01:44;105.20;;;58.23;;
3597;SDS011;1813;52.016;8.714;2023-04-16T02:04:18;105.77;;;58.00;;
3597;SDS011;1813;52.016;8.714;2023-04-16T02:06:52;102.03;;;56.53;;
3597;SDS011;1813;52.016;8.714;2023-04-16T02:09:28;99.57;;;56.67;;
3597;SDS011;1813;52.016;8.714;2023-04-16T02:12:03;104.03;;;57.63;;
3597;SDS011;1813;52.016;8.714;2023-04-16T02:14:37;101.73;;;57.80;;
3597;SDS011;1813;52.016;8.714;2023-04-16T02:17:11;105.33;;;57.40;;
3597;SDS011;1813;52.016;8.714;2023-04-16T02:19:46;104.47;;;55.30;;
3597;SDS011;1813;52.016;8.714;2023-04-16T02:22:20;91.27;;;54.37;;
3597;SDS011;1813;52.016;8.714;2023-04-16T02:24:58;81.73;;;51.57;;
3597;SDS011;1813;52.016;8.714;2023-04-16T02:27:32;87.17;;;51.70;;
3597;SDS011;1813;52.016;8.714;2023-04-16T02:30:21;81.80;;;51.57;;
3597;SDS011;1813;52.016;8.714;2023-04-16T02:32:56;87.50;;;52.00;;
3597;SDS011;1813;52.016;8.714;2023-04-16T02:35:31;79.83;;;48.57;;
3597;SDS011;1813;52.016;8.714;2023-04-16T02:38:05;78.93;;;49.77;;
3597;SDS011;1813;52.016;8.714;2023-04-16T02:40:43;82.33;;;50.80;;
3597;SDS011;1813;52.016;8.714;2023-04-16T02:43:16;81.87;;;50.23;;
3597;SDS011;1813;52.016;8.714;2023-04-16T02:45:50;82.07;;;50.50;;
3597;SDS011;1813;52.016;8.714;2023-04-16T02:48:24;76.63;;;48.20;;
3597;SDS011;1813;52.016;8.714;2023-04-16T02:50:58;75.50;;;48.83;;
3597;SDS011;1813;52.016;8.714;2023-04-16T02:53:32;84.03;;;49.27;;
3597;SDS011;1813;52.016;8.714;2023-04-16T02:56:08;84.17;;;47.67;;
3597;SDS011;1813;52.016;8.714;2023-04-16T02:58:42;71.50;;;45.40;;
3597;SDS011;1813;52.016;8.714;2023-04-16T03:01:16;75.60;;;46.70;;
3597;SDS011;1813;52.016;8.714;2023-04-16T03:03:49;77.30;;;46.37;;
3597;SDS011;1813;52.016;8.714;2023-04-16T03:06:23;73.80;;;46.50;;
3597;SDS011;1813;52.016;8.714;2023-04-16T03:08:57;71.23;;;45.30;;
3597;SDS011;1813;52.016;8.714;2023-04-16T03:11:34;69.60;;;44.80;;
3597;SDS011;1813;52.016;8.714;2023-04-16T03:14:08;73.40;;;45.50;;
3597;SDS011;1813;52.016;8.714;2023-04-16T03:16:42;70.93;;;44.30;;
3597;SDS011;1813;52.016;8.714;2023-04-16T03:19:16;66.17;;;44.57;;
3597;SDS011;1813;52.016;8.714;2023-04-16T03:21:49;68.50;;;44.50;;
3597;SDS011;1813;52.016;8.714;2023-04-16T03:24:23;66.33;;;43.30;;
3597;SDS011;1813;52.016;8.714;2023-04-16T03:27:00;66.33;;;42.00;;
3597;SDS011;1813;52.016;8.714;2023-04-16T03:29:35;66.63;;;41.57;;
3597;SDS011;1813;52.016;8.714;2023-04-16T03:32:10;58.80;;;39.93;;
3597;SDS011;1813;52.016;8.714;2023-04-16T03:34:44;63.70;;;40.83;;
3597;SDS011;1813;52.016;8.714;2023-04-16T03:37:18;58.07;;;38.90;;
3597;SDS011;1813;52.016;8.714;2023-04-16T03:39:53;62.73;;;37.63;;
3597;SDS011;1813;52.016;8.714;2023-04-16T03:42:30;59.50;;;37.47;;
3597;SDS011;1813;52.016;8.714;2023-04-16T03:45:04;58.70;;;40.00;;
3597;SDS011;1813;52.016;8.714;2023-04-16T03:47:41;57.23;;;37.13;;
3597;SDS011;1813;52.016;8.714;2023-04-16T03:50:18;60.03;;;39.37;;
3597;SDS011;1813;52.016;8.714;2023-04-16T03:52:52;58.50;;;38.50;;
3597;SDS011;1813;52.016;8.714;2023-04-16T03:55:26;62.17;;;40.07;;
3597;SDS011;1813;52.016;8.714;2023-04-16T03:58:03;59.60;;;39.20;;
3597;SDS011;1813;52.016;8.714;2023-04-16T04:00:40;60.00;;;39.40;;
3597;SDS011;1813;52.016;8.714;2023-04-16T04:03:17;67.80;;;41.93;;
3597;SDS011;1813;52.016;8.714;2023-04-16T04:05:53;62.13;;;40.97;;
3597;SDS011;1813;52.016;8.714;2023-04-16T04:08:33;61.90;;;40.93;;
3597;SDS011;1813;52.016;8.714;2023-04-16T04:11:08;62.33;;;41.87;;
3597;SDS011;1813;52.016;8.714;2023-04-16T04:13:47;72.17;;;41.27;;
3597;SDS011;1813;52.016;8.714;2023-04-16T04:16:20;67.57;;;42.70;;
3597;SDS011;1813;52.016;8.714;2023-04-16T04:18:54;69.00;;;44.27;;
3597;SDS011;1813;52.016;8.714;2023-04-16T04:21:29;71.77;;;44.20;;
3597;SDS011;1813;52.016;8.714;2023-04-16T04:24:04;76.73;;;46.90;;
3597;SDS011;1813;52.016;8.714;2023-04-16T04:26:38;72.23;;;46.50;;
3597;SDS011;1813;52.016;8.714;2023-04-16T04:29:14;70.40;;;46.67;;
3597;SDS011;1813;52.016;8.714;2023-04-16T04:31:49;85.23;;;47.17;;
3597;SDS011;1813;52.016;8.714;2023-04-16T04:34:26;66.07;;;43.67;;
3597;SDS011;1813;52.016;8.714;2023-04-16T04:37:02;67.60;;;43.57;;
3597;SDS011;1813;52.016;8.714;2023-04-16T04:39:36;64.53;;;43.07;;
3597;SDS011;1813;52.016;8.714;2023-04-16T04:42:10;66.97;;;42.83;;
3597;SDS011;1813;52.016;8.714;2023-04-16T04:44:47;70.80;;;42.53;;
3597;SDS011;1813;52.016;8.714;2023-04-16T04:47:21;67.93;;;44.07;;
3597;SDS011;1813;52.016;8.714;2023-04-16T04:49:56;72.77;;;44.93;;
3597;SDS011;1813;52.016;8.714;2023-04-16T04:52:31;68.93;;;43.57;;
3597;SDS011;1813;52.016;8.714;2023-04-16T04:55:06;67.67;;;43.70;;
3597;SDS011;1813;52.016;8.714;2023-04-16T04:57:40;69.63;;;43.37;;
3597;SDS011;1813;52.016;8.714;2023-04-16T05:00:17;72.33;;;44.60;;
3597;SDS011;1813;52.016;8.714;2023-04-16T05:02:57;76.10;;;45.73;;
3597;SDS011;1813;52.016;8.714;2023-04-16T05:05:30;74.63;;;45.03;;
3597;SDS011;1813;52.016;8.714;2023-04-16T05:08:04;70.23;;;42.23;;
3597;SDS011;1813;52.016;8.714;2023-04-16T05:10:38;70.00;;;42.90;;
3597;SDS011;1813;52.016;8.714;2023-04-16T05:13:12;65.57;;;40.57;;
3597;SDS011;1813;52.016;8.714;2023-04-16T05:15:48;65.80;;;41.07;;
3597;SDS011;1813;52.016;8.714;2023-04-16T05:18:22;64.17;;;41.30;;
3597;SDS011;1813;52.016;8.714;2023-04-16T05:20:56;66.13;;;42.57;;
3597;SDS011;1813;52.016;8.714;2023-04-16T05:23:29;71.87;;;41.60;;
3597;SDS011;1813;52.016;8.714;2023-04-16T05:26:03;70.20;;;41.53;;
3597;SDS011;1813;52.016;8.714;2023-04-16T05:28:37;71.77;;;43.37;;
3597;SDS011;1813;52.016;8.714;2023-04-16T05:31:13;71.07;;;42.40;;
3597;SDS011;1813;52.016;8.714;2023-04-16T05:33:47;68.13;;;43.23;;
3597;SDS011;1813;52.016;8.714;2023-04-16T05:36:21;70.13;;;44.60;;
3597;SDS011;1813;52.016;8.714;2023-04-16T05:38:55;69.13;;;44.20;;
3597;SDS011;1813;52.016;8.714;2023-04-16T05:41:29;68.70;;;43.97;;
3597;SDS011;1813;52.016;8.714;2023-04-16T05:44:02;74.33;;;44.60;;
3597;SDS011;1813;52.016;8.714;2023-04-16T05:46:39;66.57;;;44.80;;
3597;SDS011;1813;52.016;8.714;2023-04-16T05:49:13;68.63;;;43.47;;
3597;SDS011;1813;52.016;8.714;2023-04-16T05:51:48;74.87;;;45.80;;
3597;SDS011;1813;52.016;8.714;2023-04-16T05:54:21;71.80;;;45.40;;
3597;SDS011;1813;52.016;8.714;2023-04-16T05:56:55;73.57;;;46.63;;
3597;SDS011;1813;52.016;8.714;2023-04-16T05:59:30;76.13;;;45.17;;
3597;SDS011;1813;52.016;8.714;2023-04-16T06:02:06;75.63;;;47.43;;
3597;SDS011;1813;52.016;8.714;2023-04-16T06:04:40;70.07;;;44.10;;
3597;SDS011;1813;52.016;8.714;2023-04-16T06:07:14;75.83;;;44.97;;
3597;SDS011;1813;52.016;8.714;2023-04-16T06:09:48;70.30;;;44.43;;
3597;SDS011;1813;52.016;8.714;2023-04-16T06:12:22;71.83;;;45.33;;
3597;SDS011;1813;52.016;8.714;2023-04-16T06:14:55;76.80;;;46.90;;
3597;SDS011;1813;52.016;8.714;2023-04-16T06:17:32;70.97;;;45.63;;
3597;SDS011;1813;52.016;8.714;2023-04-16T06:20:06;74.77;;;45.47;;
3597;SDS011;1813;52.016;8.714;2023-04-16T06:22:40;74.23;;;45.23;;
3597;SDS011;1813;52.016;8.714;2023-04-16T06:25:14;75.43;;;45.63;;
3597;SDS011;1813;52.016;8.714;2023-04-16T06:27:48;75.57;;;45.07;;
3597;SDS011;1813;52.016;8.714;2023-04-16T06:30:22;66.27;;;42.60;;
3597;SDS011;1813;52.016;8.714;2023-04-16T06:32:58;64.13;;;39.90;;
3597;SDS011;1813;52.016;8.714;2023-04-16T06:35:34;62.27;;;39.33;;
3597;SDS011;1813;52.016;8.714;2023-04-16T06:38:08;61.70;;;37.40;;
3597;SDS011;1813;52.016;8.714;2023-04-16T06:40:42;58.03;;;38.23;;
3597;SDS011;1813;52.016;8.714;2023-04-16T06:43:16;59.43;;;37.50;;
3597;SDS011;1813;52.016;8.714;2023-04-16T06:45:50;62.67;;;39.43;;
3597;SDS011;1813;52.016;8.714;2023-04-16T06:48:26;64.93;;;40.10;;
3597;SDS011;1813;52.016;8.714;2023-04-16T06:51:00;60.07;;;39.57;;
3597;SDS011;1813;52.016;8.714;2023-04-16T06:53:35;63.33;;;39.23;;
3597;SDS011;1813;52.016;8.714;2023-04-16T06:56:09;61.53;;;40.77;;
3597;SDS011;1813;52.016;8.714;2023-04-16T06:58:43;61.47;;;38.90;;
3597;SDS011;1813;52.016;8.714;2023-04-16T07:01:17;56.47;;;36.53;;
3597;SDS011;1813;52.016;8.714;2023-04-16T07:03:53;63.83;;;39.63;;
3597;SDS011;1813;52.016;8.714;2023-04-16T07:06:27;57.07;;;36.33;;
3597;SDS011;1813;52.016;8.714;2023-04-16T07:09:01;50.80;;;34.10;;
3597;SDS011;1813;52.016;8.714;2023-04-16T07:11:35;55.07;;;35.20;;
3597;SDS011;1813;52.016;8.714;2023-04-16T07:14:08;55.90;;;35.87;;
3597;SDS011;1813;52.016;8.714;2023-04-16T07:16:43;56.80;;;35.77;;
3597;SDS011;1813;52.016;8.714;2023-04-16T07:19:19;58.53;;;37.20;;
3597;SDS011;1813;52.016;8.714;2023-04-16T07:21:53;56.57;;;36.13;;
3597;SDS011;1813;52.016;8.714;2023-04-16T07:24:27;61.37;;;37.30;;
3597;SDS011;1813;52.016;8.714;2023-04-16T07:27:00;59.20;;;38.00;;
3597;SDS011;1813;52.016;8.714;2023-04-16T07:29:34;60.60;;;39.00;;
3597;SDS011;1813;52.016;8.714;2023-04-16T07:32:08;60.33;;;37.60;;
3597;SDS011;1813;52.016;8.714;2023-04-16T07:34:44;61.87;;;39.17;;
3597;SDS011;1813;52.016;8.714;2023-04-16T07:37:18;62.90;;;38.37;;
3597;SDS011;1813;52.016;8.714;2023-04-16T07:39:52;55.20;;;37.10;;
3597;SDS011;1813;52.016;8.714;2023-04-16T07:42:26;57.47;;;36.87;;
3597;SDS011;1813;52.016;8.714;2023-04-16T07:45:00;56.00;;;37.37;;
3597;SDS011;1813;52.016;8.714;2023-04-16T07:47:34;55.27;;;36.43;;
3597;SDS011;1813;52.016;8.714;2023-04-16T07:50:11;56.90;;;36.90;;
3597;SDS011;1813;52.016;8.714;2023-04-16T07:52:45;54.90;;;35.33;;
3597;SDS011;1813;52.016;8.714;2023-04-16T07:55:20;56.60;;;38.07;;
3597;SDS011;1813;52.016;8.714;2023-04-16T07:57:53;58.70;;;37.37;;
3597;SDS011;1813;52.016;8.714;2023-04-16T08:00:27;53.40;;;36.03;;
3597;SDS011;1813;52.016;8.714;2023-04-16T08:03:01;60.70;;;37.77;;
3597;SDS011;1813;52.016;8.714;2023-04-16T08:05:38;58.67;;;37.93;;
3597;SDS011;1813;52.016;8.714;2023-04-16T08:08:12;52.33;;;33.93;;
3597;SDS011;1813;52.016;8.714;2023-04-16T08:10:46;51.73;;;34.53;;
3597;SDS011;1813;52.016;8.714;2023-04-16T08:13:24;50.90;;;33.60;;
3597;SDS011;1813;52.016;8.714;2023-04-16T08:15:58;54.90;;;36.13;;
3597;SDS011;1813;52.016;8.714;2023-04-16T08:18:32;55.27;;;35.93;;
3597;SDS011;1813;52.016;8.714;2023-04-16T08:21:09;53.77;;;35.60;;
3597;SDS011;1813;52.016;8.714;2023-04-16T08:23:43;57.87;;;37.00;;
3597;SDS011;1813;52.016;8.714;2023-04-16T08:26:17;57.87;;;36.53;;
3597;SDS011;1813;52.016;8.714;2023-04-16T08:28:51;60.30;;;38.20;;
3597;SDS011;1813;52.016;8.714;2023-04-16T08:31:25;58.77;;;36.40;;
3597;SDS011;1813;52.016;8.714;2023-04-16T08:33:59;56.70;;;37.03;;
3597;SDS011;1813;52.016;8.714;2023-04-16T08:36:35;57.40;;;37.00;;
3597;SDS011;1813;52.016;8.714;2023-04-16T08:39:09;66.63;;;38.57;;
3597;SDS011;1813;52.016;8.714;2023-04-16T08:41:43;52.47;;;34.60;;
3597;SDS011;1813;52.016;8.714;2023-04-16T08:44:19;51.70;;;35.20;;
3597;SDS011;1813;52.016;8.714;2023-04-16T08:46:57;53.57;;;35.70;;
3597;SDS011;1813;52.016;8.714;2023-04-16T08:49:31;49.17;;;33.60;;
3597;SDS011;1813;52.016;8.714;2023-04-16T08:52:18;50.97;;;33.53;;
3597;SDS011;1813;52.016;8.714;2023-04-16T08:54:55;51.63;;;35.33;;
3597;SDS011;1813;52.016;8.714;2023-04-16T08:57:36;49.50;;;34.10;;
3597;SDS011;1813;52.016;8.714;2023-04-16T09:00:13;55.03;;;33.90;;
3597;SDS011;1813;52.016;8.714;2023-04-16T09:02:48;55.90;;;35.77;;
3597;SDS011;1813;52.016;8.714;2023-04-16T09:05:22;60.10;;;34.50;;
3597;SDS011;1813;52.016;8.714;2023-04-16T09:07:59;48.37;;;33.77;;
3597;SDS011;1813;52.016;8.714;2023-04-16T09:10:33;55.20;;;35.97;;
3597;SDS011;1813;52.016;8.714;2023-04-16T09:13:08;58.63;;;38.50;;
3597;SDS011;1813;52.016;8.714;2023-04-16T09:15:44;54.03;;;36.60;;
3597;SDS011;1813;52.016;8.714;2023-04-16T09:18:18;57.93;;;38.50;;
3597;SDS011;1813;52.016;8.714;2023-04-16T09:20:52;55.70;;;36.20;;
3597;SDS011;1813;52.016;8.714;2023-04-16T09:23:29;52.83;;;35.23;;
3597;SDS011;1813;52.016;8.714;2023-04-16T09:26:03;50.67;;;34.60;;
3597;SDS011;1813;52.016;8.714;2023-04-16T09:28:38;51.30;;;34.50;;
3597;SDS011;1813;52.016;8.714;2023-04-16T09:31:13;49.77;;;34.27;;
3597;SDS011;1813;52.016;8.714;2023-04-16T09:33:59;50.47;;;33.20;;
3597;SDS011;1813;52.016;8.714;2023-04-16T09:36:35;45.87;;;31.47;;
3597;SDS011;1813;52.016;8.714;2023-04-16T09:39:11;46.00;;;31.23;;
3597;SDS011;1813;52.016;8.714;2023-04-16T09:41:51;48.17;;;30.80;;
3597;SDS011;1813;52.016;8.714;2023-04-16T09:44:33;70.77;;;31.10;;
3597;SDS011;1813;52.016;8.714;2023-04-16T09:47:09;51.43;;;31.17;;
3597;SDS011;1813;52.016;8.714;2023-04-16T09:49:42;53.43;;;28.73;;
3597;SDS011;1813;52.016;8.714;2023-04-16T09:52:17;44.43;;;30.57;;
3597;SDS011;1813;52.016;8.714;2023-04-16T09:54:55;41.97;;;31.07;;
3597;SDS011;1813;52.016;8.714;2023-04-16T09:57:29;48.07;;;31.57;;
3597;SDS011;1813;52.016;8.714;2023-04-16T10:00:03;53.77;;;34.90;;
3597;SDS011;1813;52.016;8.714;2023-04-16T10:02:39;49.90;;;32.57;;
3597;SDS011;1813;52.016;8.714;2023-04-16T10:05:13;49.60;;;31.20;;
3597;SDS011;1813;52.016;8.714;2023-04-16T10:07:49;45.93;;;28.23;;
3597;SDS011;1813;52.016;8.714;2023-04-16T10:10:25;47.33;;;29.67;;
3597;SDS011;1813;52.016;8.714;2023-04-16T10:12:59;46.17;;;27.10;;
3597;SDS011;1813;52.016;8.714;2023-04-16T10:15:33;38.60;;;27.20;;
3597;SDS011;1813;52.016;8.714;2023-04-16T10:18:07;38.90;;;27.20;;
3597;SDS011;1813;52.016;8.714;2023-04-16T10:20:41;43.20;;;28.47;;
3597;SDS011;1813;52.016;8.714;2023-04-16T10:23:15;49.73;;;34.20;;
3597;SDS011;1813;52.016;8.714;2023-04-16T10:25:52;46.23;;;31.13;;
3597;SDS011;1813;52.016;8.714;2023-04-16T10:28:27;47.77;;;29.07;;
3597;SDS011;1813;52.016;8.714;2023-04-16T10:34:19;42.10;;;29.43;;
3597;SDS011;1813;52.016;8.714;2023-04-16T10:36:53;41.50;;;28.37;;
3597;SDS011;1813;52.016;8.714;2023-04-16T10:39:28;42.37;;;27.93;;
3597;SDS011;1813;52.016;8.714;2023-04-16T10:42:07;42.20;;;27.13;;
3597;SDS011;1813;52.016;8.714;2023-04-16T10:44:41;46.03;;;28.80;;
3597;SDS011;1813;52.016;8.714;2023-04-16T10:47:15;41.37;;;27.30;;
3597;SDS011;1813;52.016;8.714;2023-04-16T10:49:52;44.50;;;28.17;;
3597;SDS011;1813;52.016;8.714;2023-04-16T10:52:25;46.87;;;27.80;;
3597;SDS011;1813;52.016;8.714;2023-04-16T10:55:01;44.93;;;28.40;;
3597;SDS011;1813;52.016;8.714;2023-04-16T10:57:35;42.33;;;27.37;;
3597;SDS011;1813;52.016;8.714;2023-04-16T11:00:20;45.03;;;27.73;;
3597;SDS011;1813;52.016;8.714;2023-04-16T11:02:54;43.60;;;27.23;;
3597;SDS011;1813;52.016;8.714;2023-04-16T11:05:39;43.40;;;26.67;;
3597;SDS011;1813;52.016;8.714;2023-04-16T11:08:17;44.17;;;27.50;;
3597;SDS011;1813;52.016;8.714;2023-04-16T11:10:51;48.37;;;28.73;;
3597;SDS011;1813;52.016;8.714;2023-04-16T11:13:25;43.20;;;28.43;;
3597;SDS011;1813;52.016;8.714;2023-04-16T11:15:59;44.33;;;27.40;;
3597;SDS011;1813;52.016;8.714;2023-04-16T11:18:33;40.73;;;27.87;;
3597;SDS011;1813;52.016;8.714;2023-04-16T11:21:12;43.80;;;27.27;;
3597;SDS011;1813;52.016;8.714;2023-04-16T11:23:46;46.80;;;26.70;;
3597;SDS011;1813;52.016;8.714;2023-04-16T11:26:26;48.40;;;27.40;;
3597;SDS011;1813;52.016;8.714;2023-04-16T11:29:01;42.77;;;26.80;;
3597;SDS011;1813;52.016;8.714;2023-04-16T11:31:48;41.83;;;27.80;;
3597;SDS011;1813;52.016;8.714;2023-04-16T11:34:24;40.70;;;25.70;;
3597;SDS011;1813;52.016;8.714;2023-04-16T11:37:00;48.73;;;26.67;;
3597;SDS011;1813;52.016;8.714;2023-04-16T11:39:46;44.10;;;27.20;;
3597;SDS011;1813;52.016;8.714;2023-04-16T11:42:20;43.67;;;27.57;;
3597;SDS011;1813;52.016;8.714;2023-04-16T11:44:57;42.47;;;27.47;;
3597;SDS011;1813;52.016;8.714;2023-04-16T11:47:41;44.23;;;26.60;;
3597;SDS011;1813;52.016;8.714;2023-04-16T11:50:20;46.87;;;29.23;;
3597;SDS011;1813;52.016;8.714;2023-04-16T11:53:02;43.40;;;27.90;;
3597;SDS011;1813;52.016;8.714;2023-04-16T11:55:41;40.33;;;27.20;;
3597;SDS011;1813;52.016;8.714;2023-04-16T11:58:16;41.10;;;26.90;;
3597;SDS011;1813;52.016;8.714;2023-04-16T12:00:52;43.63;;;27.20;;
3597;SDS011;1813;52.016;8.714;2023-04-16T12:03:38;45.30;;;29.00;;
3597;SDS011;1813;52.016;8.714;2023-04-16T12:06:15;48.30;;;27.40;;
3597;SDS011;1813;52.016;8.714;2023-04-16T12:08:51;49.13;;;27.90;;
3597;SDS011;1813;52.016;8.714;2023-04-16T12:11:38;44.90;;;26.90;;
3597;SDS011;1813;52.016;8.714;2023-04-16T12:14:12;42.67;;;27.20;;
3597;SDS011;1813;52.016;8.714;2023-04-16T12:16:46;46.90;;;26.67;;
3597;SDS011;1813;52.016;8.714;2023-04-16T12:19:20;40.93;;;26.43;;
3597;SDS011;1813;52.016;8.714;2023-04-16T12:21:54;41.37;;;26.00;;
3597;SDS011;1813;52.016;8.714;2023-04-16T12:24:35;44.30;;;26.77;;
3597;SDS011;1813;52.016;8.714;2023-04-16T12:27:09;42.83;;;25.70;;
3597;SDS011;1813;52.016;8.714;2023-04-16T12:29:43;42.33;;;26.13;;
3597;SDS011;1813;52.016;8.714;2023-04-16T12:32:20;39.97;;;27.07;;
3597;SDS011;1813;52.016;8.714;2023-04-16T12:34:55;44.47;;;26.80;;
3597;SDS011;1813;52.016;8.714;2023-04-16T12:37:29;45.00;;;29.60;;
3597;SDS011;1813;52.016;8.714;2023-04-16T12:40:06;44.40;;;25.30;;
3597;SDS011;1813;52.016;8.714;2023-04-16T12:42:40;40.23;;;27.63;;
3597;SDS011;1813;52.016;8.714;2023-04-16T12:45:15;48.40;;;28.27;;
3597;SDS011;1813;52.016;8.714;2023-04-16T12:47:48;40.40;;;25.83;;
3597;SDS011;1813;52.016;8.714;2023-04-16T12:50:22;43.37;;;25.97;;
3597;SDS011;1813;52.016;8.714;2023-04-16T12:52:58;39.93;;;25.17;;
3597;SDS011;1813;52.016;8.714;2023-04-16T12:55:34;38.97;;;25.57;;
3597;SDS011;1813;52.016;8.714;2023-04-16T12:58:08;40.40;;;25.40;;
3597;SDS011;1813;52.016;8.714;2023-04-16T13:00:42;38.57;;;25.30;;
3597;SDS011;1813;52.016;8.714;2023-04-16T13:03:15;38.03;;;24.60;;
3597;SDS011;1813;52.016;8.714;2023-04-16T13:05:50;40.60;;;25.00;;
3597;SDS011;1813;52.016;8.714;2023-04-16T13:08:23;39.93;;;24.33;;
3597;SDS011;1813;52.016;8.714;2023-04-16T13:11:00;41.30;;;24.90;;
3597;SDS011;1813;52.016;8.714;2023-04-16T13:13:34;40.80;;;25.60;;
3597;SDS011;1813;52.016;8.714;2023-04-16T13:16:07;40.97;;;25.50;;
3597;SDS011;1813;52.016;8.714;2023-04-16T13:18:41;35.83;;;24.90;;
3597;SDS011;1813;52.016;8.714;2023-04-16T13:21:15;37.67;;;24.30;;
3597;SDS011;1813;52.016;8.714;2023-04-16T13:23:49;43.00;;;25.03;;
3597;SDS011;1813;52.016;8.714;2023-04-16T13:26:25;37.50;;;24.90;;
3597;SDS011;1813;52.016;8.714;2023-04-16T13:28:59;43.53;;;25.10;;
3597;SDS011;1813;52.016;8.714;2023-04-16T13:31:33;42.97;;;24.60;;
3597;SDS011;1813;52.016;8.714;2023-04-16T13:34:07;40.00;;;25.20;;
3597;SDS011;1813;52.016;8.714;2023-04-16T13:36:41;39.00;;;25.17;;
3597;SDS011;1813;52.016;8.714;2023-04-16T13:39:15;36.90;;;24.90;;
3597;SDS011;1813;52.016;8.714;2023-04-16T13:41:52;39.63;;;23.60;;
3597;SDS011;1813;52.016;8.714;2023-04-16T13:44:25;43.20;;;25.60;;
3597;SDS011;1813;52.016;8.714;2023-04-16T13:46:59;40.03;;;26.03;;
3597;SDS011;1813;52.016;8.714;2023-04-16T13:49:33;44.80;;;28.37;;
3597;SDS011;1813;52.016;8.714;2023-04-16T13:52:07;35.73;;;24.07;;
3597;SDS011;1813;52.016;8.714;2023-04-16T13:54:40;37.53;;;24.60;;
3597;SDS011;1813;52.016;8.714;2023-04-16T13:57:25;34.87;;;24.30;;
3597;SDS011;1813;52.016;8.714;2023-04-16T14:00:01;39.50;;;24.80;;
3597;SDS011;1813;52.016;8.714;2023-04-16T14:02:35;33.90;;;23.60;;
3597;SDS011;1813;52.016;8.714;2023-04-16T14:05:09;35.80;;;24.30;;
3597;SDS011;1813;52.016;8.714;2023-04-16T14:07:43;33.50;;;22.63;;
3597;SDS011;1813;52.016;8.714;2023-04-16T14:10:17;36.97;;;23.40;;
3597;SDS011;1813;52.016;8.714;2023-04-16T14:12:54;34.90;;;23.83;;
3597;SDS011;1813;52.016;8.714;2023-04-16T14:15:29;36.30;;;24.73;;
3597;SDS011;1813;52.016;8.714;2023-04-16T14:18:03;33.30;;;22.27;;
3597;SDS011;1813;52.016;8.714;2023-04-16T14:20:36;34.77;;;24.40;;
3597;SDS011;1813;52.016;8.714;2023-04-16T14:23:10;31.50;;;22.90;;
3597;SDS011;1813;52.016;8.714;2023-04-16T14:25:44;36.30;;;23.33;;
3597;SDS011;1813;52.016;8.714;2023-04-16T14:28:21;32.10;;;22.57;;
3597;SDS011;1813;52.016;8.714;2023-04-16T14:30:54;31.80;;;22.90;;
3597;SDS011;1813;52.016;8.714;2023-04-16T14:33:28;36.53;;;23.73;;
3597;SDS011;1813;52.016;8.714;2023-04-16T14:36:02;37.93;;;24.20;;
3597;SDS011;1813;52.016;8.714;2023-04-16T14:38:36;36.50;;;24.17;;
3597;SDS011;1813;52.016;8.714;2023-04-16T14:41:12;37.07;;;24.40;;
3597;SDS011;1813;52.016;8.714;2023-04-16T14:43:48;30.77;;;22.23;;
3597;SDS011;1813;52.016;8.714;2023-04-16T14:46:22;33.50;;;23.20;;
3597;SDS011;1813;52.016;8.714;2023-04-16T14:48:56;32.50;;;23.70;;
3597;SDS011;1813;52.016;8.714;2023-04-16T14:51:30;34.47;;;22.70;;
3597;SDS011;1813;52.016;8.714;2023-04-16T14:54:04;37.50;;;22.50;;
3597;SDS011;1813;52.016;8.714;2023-04-16T14:56:38;35.00;;;25.03;;
3597;SDS011;1813;52.016;8.714;2023-04-16T14:59:14;36.40;;;24.07;;
3597;SDS011;1813;52.016;8.714;2023-04-16T15:01:48;34.67;;;24.90;;
3597;SDS011;1813;52.016;8.714;2023-04-16T15:04:23;38.83;;;25.23;;
3597;SDS011;1813;52.016;8.714;2023-04-16T15:06:57;38.83;;;25.10;;
3597;SDS011;1813;52.016;8.714;2023-04-16T15:09:34;37.83;;;25.83;;
3597;SDS011;1813;52.016;8.714;2023-04-16T15:12:08;40.17;;;25.10;;
3597;SDS011;1813;52.016;8.714;2023-04-16T15:14:45;42.07;;;25.83;;
3597;SDS011;1813;52.016;8.714;2023-04-16T15:17:19;35.37;;;25.50;;
3597;SDS011;1813;52.016;8.714;2023-04-16T15:19:55;36.97;;;25.80;;
3597;SDS011;1813;52.016;8.714;2023-04-16T15:22:31;33.10;;;25.20;;
3597;SDS011;1813;52.016;8.714;2023-04-16T15:25:07;35.70;;;25.50;;
3597;SDS011;1813;52.016;8.714;2023-04-16T15:27:42;40.17;;;25.90;;
3597;SDS011;1813;52.016;8.714;2023-04-16T15:30:18;38.63;;;25.43;;
3597;SDS011;1813;52.016;8.714;2023-04-16T15:32:54;36.47;;;26.10;;
3597;SDS011;1813;52.016;8.714;2023-04-16T15:35:29;36.70;;;24.67;;